createdAt,value
2019-03-02T00:04:48.409Z,97211.16
2019-03-02T00:09:42.104Z,97216.37
2019-03-02T00:14:36.683Z,97208.23
2019-03-02T00:19:31.281Z,97211.41
2019-03-02T00:24:25.860Z,97205.30
2019-03-02T00:29:20.480Z,97210.47
2019-03-02T00:34:15.086Z,97204.27
2019-03-02T00:39:10.647Z,97209.16
2019-03-02T00:44:05.288Z,97214.48
2019-03-02T00:48:59.891Z,97221.44
2019-03-02T00:53:54.510Z,97222.30
2019-03-02T00:58:49.117Z,97223.52
2019-03-02T01:03:43.679Z,97222.79
2019-03-02T01:08:38.345Z,97230.03
2019-03-02T01:13:33.013Z,97233.58
2019-03-02T01:18:27.690Z,97229.06
2019-03-02T01:23:23.833Z,97217.98
2019-03-02T01:28:18.569Z,97216.09
2019-03-02T01:33:13.160Z,97221.28
2019-03-02T01:38:07.856Z,97218.37
2019-03-02T01:43:04.925Z,97222.38
2019-03-02T01:47:58.759Z,97221.91
2019-03-02T01:52:53.331Z,97214.26
2019-03-02T01:57:48.830Z,97216.93
2019-03-02T02:02:44.461Z,97213.11
2019-03-02T02:07:39.132Z,97213.98
2019-03-02T02:12:33.778Z,97217.39
2019-03-02T02:17:28.402Z,97205.39
2019-03-02T02:22:22.991Z,97201.36
2019-03-02T02:27:18.862Z,97202.14
2019-03-02T02:32:13.893Z,97196.39
2019-03-02T02:37:08.562Z,97192.25
2019-03-02T02:42:05.322Z,97178.72
2019-03-02T02:46:59.530Z,97181.81
2019-03-02T02:51:54.112Z,97183.94
2019-03-02T02:56:48.716Z,97175.53
2019-03-02T03:01:43.350Z,97178.03
2019-03-02T03:06:37.945Z,97184.56
2019-03-02T03:11:32.515Z,97190.47
2019-03-02T03:16:27.116Z,97185.26
2019-03-02T03:21:26.832Z,97168.98
2019-03-02T03:26:18.130Z,97163.17
2019-03-02T03:31:21.505Z,97163.31
2019-03-02T03:36:09.024Z,97149.37
2019-03-02T03:41:05.263Z,97158.16
2019-03-02T03:46:00.033Z,97162.84
2019-03-02T03:50:54.634Z,97161.41
2019-03-02T03:55:49.458Z,97162.55
2019-03-02T04:00:44.058Z,97160.26
2019-03-02T04:05:42.232Z,97167.94
2019-03-02T04:10:35.093Z,97165.86
2019-03-02T04:15:29.753Z,97170.34
2019-03-02T04:20:38.450Z,97173.30
2019-03-02T04:25:33.037Z,97171.27
2019-03-02T04:30:31.263Z,97167.75
2019-03-02T04:35:24.124Z,97168.28
2019-03-02T04:40:23.278Z,97174.06
2019-03-02T04:45:15.084Z,97171.55
2019-03-02T04:50:10.321Z,97168.23
2019-03-02T04:55:09.408Z,97168.53
2019-03-02T05:00:12.857Z,97184.30
2019-03-02T05:05:08.415Z,97185.27
2019-03-02T05:10:04.688Z,97184.86
2019-03-02T05:14:59.286Z,97184.86
2019-03-02T05:19:53.902Z,97189.72
2019-03-02T05:24:48.505Z,97187.95
2019-03-02T05:29:43.104Z,97177.32
2019-03-02T05:34:39.769Z,97179.73
2019-03-02T05:39:34.067Z,97175.34
2019-03-02T05:44:28.658Z,97171.65
2019-03-02T05:49:23.251Z,97177.38
2019-03-02T05:54:17.834Z,97181.68
2019-03-02T05:59:12.435Z,97178.72
2019-03-02T06:04:07.025Z,97178.00
2019-03-02T06:09:01.623Z,97177.24
2019-03-02T06:13:56.218Z,97171.76
2019-03-02T06:18:50.809Z,97166.74
2019-03-02T06:23:45.397Z,97164.37
2019-03-02T06:28:40.056Z,97167.89
2019-03-02T06:33:36.104Z,97172.38
2019-03-02T06:38:32.100Z,97167.69
2019-03-02T06:43:27.075Z,97168.78
2019-03-02T06:48:21.687Z,97162.72
2019-03-02T06:53:16.265Z,97160.42
2019-03-02T06:58:10.924Z,97151.48
2019-03-02T07:03:06.736Z,97147.67
2019-03-02T07:08:01.841Z,97144.13
2019-03-02T07:12:58.075Z,97141.15
2019-03-02T07:18:10.663Z,97146.27
2019-03-02T07:23:05.311Z,97138.34
2019-03-02T07:28:01.771Z,97132.44
2019-03-02T07:32:56.231Z,97131.75
2019-03-02T07:37:50.842Z,97133.42
2019-03-02T07:42:45.436Z,97130.03
2019-03-02T07:47:40.037Z,97131.38
2019-03-02T07:52:34.633Z,97127.30
2019-03-02T07:57:29.258Z,97123.31
2019-03-02T08:02:25.768Z,97120.16
2019-03-02T08:07:20.148Z,97120.57
2019-03-02T08:12:14.796Z,97111.42
2019-03-02T08:17:09.759Z,97105.80
2019-03-02T08:22:07.850Z,97097.73
2019-03-02T08:27:02.682Z,97098.70
2019-03-02T08:31:57.263Z,97103.42
2019-03-02T08:36:54.291Z,97097.43
2019-03-02T08:41:48.175Z,97094.91
2019-03-02T08:46:42.749Z,97105.14
2019-03-02T08:51:37.319Z,97095.55
2019-03-02T08:56:31.923Z,97093.16
2019-03-02T09:01:26.596Z,97088.70
2019-03-02T09:06:21.189Z,97083.66
2019-03-02T09:11:15.763Z,97090.49
2019-03-02T09:16:10.503Z,97087.92
2019-03-02T09:21:05.168Z,97086.64
2019-03-02T09:26:00.980Z,97090.92
2019-03-02T09:30:58.852Z,97086.94
2019-03-02T09:35:54.857Z,97084.20
2019-03-02T09:40:49.104Z,97079.24
2019-03-02T09:45:47.874Z,97077.27
2019-03-02T09:50:41.094Z,97074.56
2019-03-02T09:55:35.702Z,97069.66
2019-03-02T10:00:31.730Z,97071.05
2019-03-02T10:05:27.195Z,97074.45
2019-03-02T10:10:25.045Z,97070.48
2019-03-02T10:15:31.498Z,97071.77
2019-03-02T10:20:26.320Z,97072.46
2019-03-02T10:25:20.981Z,97063.12
2019-03-02T10:30:27.451Z,97066.14
2019-03-02T10:35:22.379Z,97079.45
2019-03-02T10:40:19.491Z,97074.10
2019-03-02T10:45:20.044Z,97075.30
2019-03-02T10:50:28.415Z,97077.23
2019-03-02T10:55:24.509Z,97077.62
2019-03-02T11:00:31.959Z,97075.74
2019-03-02T11:05:41.729Z,97078.98
2019-03-02T11:10:53.428Z,97072.95
2019-03-02T11:15:49.702Z,97064.91
2019-03-02T11:20:45.952Z,97066.37
2019-03-02T11:25:44.817Z,97059.33
2019-03-02T11:30:41.068Z,97063.80
2019-03-02T11:35:43.124Z,97061.42
2019-03-02T11:40:57.410Z,97061.52
2019-03-02T11:45:56.953Z,97069.29
2019-03-02T11:51:11.354Z,97062.23
2019-03-02T11:56:07.701Z,97067.41
2019-03-02T12:01:03.910Z,97060.81
2019-03-02T12:06:16.259Z,97047.58
2019-03-02T12:11:28.564Z,97046.43
2019-03-02T12:16:26.437Z,97052.41
2019-03-02T12:21:29.529Z,97048.41
2019-03-02T12:26:38.012Z,97049.12
2019-03-02T12:31:43.479Z,97047.09
2019-03-02T12:36:42.146Z,97039.45
2019-03-02T12:41:41.250Z,97035.27
2019-03-02T12:46:59.290Z,97032.94
2019-03-02T12:52:02.569Z,97033.59
2019-03-02T12:57:01.299Z,97024.00
2019-03-02T13:02:03.498Z,97022.77
2019-03-02T13:07:02.213Z,97019.25
2019-03-02T13:12:14.603Z,97008.67
2019-03-02T13:17:18.864Z,97001.70
2019-03-02T13:22:21.367Z,97001.02
2019-03-02T13:27:32.872Z,96997.49
2019-03-02T13:32:34.844Z,96994.72
2019-03-02T13:37:33.505Z,96990.94
2019-03-02T13:42:31.325Z,96987.20
2019-03-02T13:47:30.237Z,96992.44
2019-03-02T13:52:26.486Z,96975.61
2019-03-02T13:57:41.784Z,96981.67
2019-03-02T14:02:39.626Z,96982.47
2019-03-02T14:07:51.936Z,96981.27
2019-03-02T14:12:54.351Z,96981.42
2019-03-02T14:17:56.941Z,96986.48
2019-03-02T14:22:55.806Z,96980.23
2019-03-02T14:27:58.721Z,96989.87
2019-03-02T14:32:55.049Z,96992.06
2019-03-02T14:38:00.043Z,96992.19
2019-03-02T14:42:56.314Z,96989.56
2019-03-02T14:48:04.489Z,96993.78
2019-03-02T14:53:10.032Z,97001.95
2019-03-02T14:58:16.278Z,96995.61
2019-03-02T15:03:25.184Z,96996.91
2019-03-02T15:08:24.881Z,96990.20
2019-03-02T15:13:32.810Z,96985.53
2019-03-02T15:18:45.032Z,96984.81
2019-03-02T15:23:41.244Z,96981.81
2019-03-02T15:28:40.158Z,96982.83
2019-03-02T15:33:40.214Z,96987.95
2019-03-02T15:38:40.099Z,96972.97
2019-03-02T15:43:40.118Z,96974.99
2019-03-02T15:48:45.675Z,96966.55
2019-03-02T15:53:56.561Z,96975.98
2019-03-02T15:58:55.791Z,96975.75
2019-03-02T16:04:06.361Z,96974.25
2019-03-02T16:09:18.866Z,96975.77
2019-03-02T16:14:28.969Z,96978.77
2019-03-02T16:19:43.813Z,96977.56
2019-03-02T16:24:42.605Z,96985.19
2019-03-02T16:29:55.854Z,96990.42
2019-03-02T16:35:08.569Z,96994.22
2019-03-02T16:40:05.976Z,97002.29
2019-03-02T16:45:00.494Z,97001.08
2019-03-02T16:50:02.711Z,97011.85
2019-03-02T16:55:01.578Z,97008.03
2019-03-02T17:00:05.288Z,97017.43
2019-03-02T17:05:02.994Z,97020.45
2019-03-02T17:09:59.315Z,97022.38
2019-03-02T17:15:09.680Z,97025.62
2019-03-02T17:20:21.268Z,97023.52
2019-03-02T17:25:30.768Z,97025.41
2019-03-02T17:30:27.687Z,97038.25
2019-03-02T17:35:25.611Z,97034.47
2019-03-02T17:40:28.053Z,97037.73
2019-03-02T17:45:24.275Z,97040.69
2019-03-02T17:50:19.758Z,97048.88
2019-03-02T17:55:19.525Z,97047.34
2019-03-02T18:00:28.921Z,97048.71
2019-03-02T18:05:27.859Z,97054.64
2019-03-02T18:10:27.126Z,97058.04
2019-03-02T18:15:36.361Z,97061.48
2019-03-02T18:20:31.248Z,97057.13
2019-03-02T18:25:25.941Z,97065.28
2019-03-02T18:30:22.912Z,97070.34
2019-03-02T18:35:17.572Z,97079.13
2019-03-02T18:40:14.898Z,97088.48
2019-03-02T18:45:13.865Z,97095.30
2019-03-02T18:50:20.878Z,97101.91
2019-03-02T18:55:15.433Z,97100.47
2019-03-02T19:00:16.154Z,97092.38
2019-03-02T19:05:14.114Z,97098.48
2019-03-02T19:10:13.235Z,97107.20
2019-03-02T19:15:14.437Z,97105.41
2019-03-02T19:20:09.026Z,97112.48
2019-03-02T19:25:04.766Z,97112.98
2019-03-02T19:29:59.374Z,97121.52
2019-03-02T19:34:53.969Z,97125.27
2019-03-02T19:39:48.575Z,97129.28
2019-03-02T19:44:43.141Z,97135.09
2019-03-02T19:49:37.741Z,97143.94
2019-03-02T19:54:33.206Z,97139.62
2019-03-02T19:59:27.805Z,97148.75
2019-03-02T20:04:22.401Z,97160.41
2019-03-02T20:09:17.133Z,97167.95
2019-03-02T20:14:11.878Z,97162.90
2019-03-02T20:19:06.462Z,97158.88
2019-03-02T20:24:01.067Z,97164.81
2019-03-02T20:28:55.673Z,97160.31
2019-03-02T20:33:50.241Z,97148.54
2019-03-02T20:38:44.900Z,97147.14
2019-03-02T20:43:39.470Z,97155.98
2019-03-02T20:48:34.057Z,97159.34
2019-03-02T20:53:28.641Z,97159.20
2019-03-02T20:58:23.232Z,97160.95
2019-03-02T21:03:17.871Z,97161.73
2019-03-02T21:08:12.464Z,97166.14
2019-03-02T21:13:07.037Z,97164.27
2019-03-02T21:18:01.761Z,97166.95
2019-03-02T21:22:56.361Z,97180.09
2019-03-02T21:27:50.979Z,97185.91
2019-03-02T21:32:45.613Z,97198.51
2019-03-02T21:37:40.194Z,97193.48
2019-03-02T21:42:34.773Z,97196.03
2019-03-02T21:47:29.360Z,97180.55
2019-03-02T21:52:23.955Z,97182.27
2019-03-02T21:57:18.556Z,97186.08
2019-03-02T22:02:13.208Z,97180.84
2019-03-02T22:07:07.802Z,97176.66
2019-03-02T22:12:02.371Z,97179.38
2019-03-02T22:16:58.760Z,97185.08
2019-03-02T22:21:53.328Z,97186.10
2019-03-02T22:26:47.924Z,97188.00
2019-03-02T22:31:42.485Z,97183.88
2019-03-02T22:36:37.072Z,97188.80
2019-03-02T22:41:31.653Z,97192.83
2019-03-02T22:46:26.237Z,97203.37
2019-03-02T22:51:20.814Z,97196.03
2019-03-02T22:56:15.416Z,97200.98
2019-03-02T23:01:26.218Z,97197.36
2019-03-02T23:06:20.785Z,97197.97
2019-03-02T23:11:15.383Z,97204.20
2019-03-02T23:16:09.956Z,97196.05
2019-03-02T23:21:04.612Z,97209.53
2019-03-02T23:25:59.178Z,97196.87
2019-03-02T23:30:53.774Z,97185.19
2019-03-02T23:35:48.352Z,97181.87
2019-03-02T23:40:43.005Z,97175.55
2019-03-02T23:45:37.655Z,97163.41
2019-03-02T23:50:32.316Z,97163.17
2019-03-02T23:55:26.881Z,97154.98
